Time;durP1;ratioP1;P1;durP2;ratioP2;P2;SDS_P1;SDS_P2;PMS_P1;PMS_P2;Temp;Humidity;BMP_temperature;BMP_pressure;BME280_temperature;BME280_humidity;BME280_pressure;Samples;Min_cycle;Max_cycle;Signal;HPM_P1;HPM_P2
2023/07/20 00:00:27;;;;;;;7.22;1.60;;;14.70;97.30;;;;;;5090679;28;20085;-79
2023/07/20 00:02:52;;;;;;;3.45;1.60;;;14.70;97.20;;;;;;5085105;28;20483;-78
2023/07/20 00:05:21;;;;;;;2.38;1.52;;;14.70;97.30;;;;;;5090209;28;20039;-79
2023/07/20 00:07:46;;;;;;;3.83;1.50;;;14.60;97.60;;;;;;5090285;28;20017;-79
2023/07/20 00:10:12;;;;;;;1.50;1.08;;;14.50;98.00;;;;;;5074322;22;20100;-81
2023/07/20 00:12:38;;;;;;;4.43;1.60;;;14.40;98.40;;;;;;5019032;28;20068;-81
2023/07/20 00:15:04;;;;;;;1.85;1.27;;;14.30;98.40;;;;;;5009396;28;20076;-81
2023/07/20 00:17:29;;;;;;;2.75;1.70;;;14.30;98.40;;;;;;5011697;28;20068;-81
2023/07/20 00:19:55;;;;;;;4.43;1.50;;;14.20;98.90;;;;;;5019007;28;20448;-81
2023/07/20 00:22:21;;;;;;;2.85;1.40;;;14.10;98.70;;;;;;5033146;28;20017;-81
2023/07/20 00:24:47;;;;;;;1.65;1.55;;;14.00;98.70;;;;;;5033313;28;20079;-81
2023/07/20 00:27:12;;;;;;;2.03;1.40;;;14.00;99.20;;;;;;5016461;28;20025;-81
2023/07/20 00:29:38;;;;;;;5.15;1.50;;;13.90;99.50;;;;;;5016645;28;20047;-81
2023/07/20 00:32:05;;;;;;;6.22;1.85;;;13.80;99.70;;;;;;5015465;28;20377;-81
2023/07/20 00:34:31;;;;;;;3.35;1.40;;;13.70;99.70;;;;;;5033782;28;20017;-81
2023/07/20 00:36:56;;;;;;;4.65;1.75;;;13.70;99.60;;;;;;5034025;28;20045;-81
2023/07/20 00:39:22;;;;;;;2.53;1.75;;;13.70;99.50;;;;;;5032807;28;20413;-81
2023/07/20 00:41:47;;;;;;;3.85;1.63;;;13.70;99.50;;;;;;5032501;28;20061;-81
2023/07/20 00:44:13;;;;;;;2.72;1.58;;;13.60;99.70;;;;;;5026547;28;20089;-81
2023/07/20 00:46:41;;;;;;;3.35;2.00;;;13.60;99.80;;;;;;5032569;28;20028;-80
2023/07/20 00:49:07;;;;;;;3.55;1.55;;;13.60;99.90;;;;;;5033412;28;20511;-81
2023/07/20 00:51:33;;;;;;;5.28;1.60;;;13.60;99.90;;;;;;5033581;28;20026;-81
2023/07/20 00:53:59;;;;;;;3.20;1.50;;;13.60;99.70;;;;;;5033052;28;20481;-81
2023/07/20 00:56:25;;;;;;;2.33;1.85;;;13.60;99.80;;;;;;5032647;28;20018;-81
2023/07/20 00:58:52;;;;;;;3.78;1.52;;;13.60;99.90;;;;;;5033305;28;20022;-81
2023/07/20 01:01:17;;;;;;;3.83;1.70;;;13.60;99.60;;;;;;5032842;28;20022;-81
2023/07/20 01:03:43;;;;;;;2.55;1.67;;;13.70;99.60;;;;;;5033036;28;20026;-81
2023/07/20 01:06:22;;;;;;;2.47;1.65;;;13.70;99.60;;;;;;5033057;28;20033;-81
2023/07/20 01:11:36;;;;;;;8.93;2.38;;;13.50;99.90;;;;;;5091280;28;20063;-81
2023/07/20 01:14:03;;;;;;;1.88;1.33;;;13.40;99.90;;;;;;5092753;28;20019;-81
2023/07/20 01:16:28;;;;;;;3.83;1.52;;;13.40;99.90;;;;;;5092393;28;20065;-81
2023/07/20 01:18:54;;;;;;;1.77;1.60;;;13.30;99.90;;;;;;5073819;28;20028;-80
2023/07/20 01:21:51;;;;;;;3.60;1.95;;;13.30;99.90;;;;;;5072843;28;20541;-81
2023/07/20 01:24:34;;;;;;;1.75;1.35;;;13.20;99.90;;;;;;5067794;28;20016;-81
2023/07/20 01:27:48;;;;;;;4.22;1.88;;;13.20;99.90;;;;;;5063800;28;20024;-82
2023/07/20 01:30:32;;;;;;;2.10;1.80;;;13.10;99.90;;;;;;5016923;28;20049;-80
2023/07/20 01:32:58;;;;;;;1.92;1.35;;;13.10;99.90;;;;;;5072218;28;20089;-81
2023/07/20 01:35:28;;;;;;;3.65;1.65;;;13.10;99.90;;;;;;5073054;28;20024;-81
2023/07/20 01:37:54;;;;;;;2.25;1.30;;;13.00;99.90;;;;;;5065145;28;20055;-81
2023/07/20 01:40:22;;;;;;;3.38;1.55;;;13.00;99.90;;;;;;5072207;28;20060;-81
2023/07/20 01:42:48;;;;;;;2.45;1.92;;;12.90;99.90;;;;;;5073073;28;20096;-81
2023/07/20 01:45:14;;;;;;;2.20;1.60;;;12.90;99.90;;;;;;5072896;28;20029;-81
2023/07/20 01:47:40;;;;;;;3.90;1.80;;;12.80;99.90;;;;;;5072687;28;20032;-81
2023/07/20 01:50:06;;;;;;;3.10;1.70;;;12.80;99.90;;;;;;5072768;28;20028;-81
2023/07/20 01:52:32;;;;;;;3.17;1.63;;;12.80;99.90;;;;;;5071095;28;20024;-81
2023/07/20 01:54:57;;;;;;;2.90;1.70;;;12.70;99.90;;;;;;5072800;28;20028;-81
2023/07/20 01:57:23;;;;;;;2.78;1.70;;;12.70;99.90;;;;;;5071600;28;20509;-81
2023/07/20 01:59:49;;;;;;;1.67;1.48;;;12.60;99.90;;;;;;5072351;28;20028;-81
2023/07/20 02:02:14;;;;;;;3.22;1.70;;;12.70;99.90;;;;;;5072266;28;20021;-81
2023/07/20 02:04:40;;;;;;;1.92;1.70;;;12.60;99.90;;;;;;5072375;28;20023;-81
2023/07/20 02:07:06;;;;;;;4.13;1.48;;;12.60;99.90;;;;;;5071993;28;20111;-81
2023/07/20 02:09:31;;;;;;;2.47;1.70;;;12.60;99.90;;;;;;5081811;22;20071;-80
2023/07/20 02:11:57;;;;;;;2.50;1.70;;;12.60;99.90;;;;;;5056536;28;20833;-80
2023/07/20 02:14:23;;;;;;;4.75;2.05;;;12.50;99.90;;;;;;5051572;28;20438;-81
2023/07/20 02:16:52;;;;;;;5.63;2.40;;;12.50;99.90;;;;;;5051222;28;20024;-81
2023/07/20 02:19:18;;;;;;;2.13;1.65;;;12.40;99.90;;;;;;5051181;28;20116;-80
2023/07/20 02:21:45;;;;;;;3.05;1.95;;;12.40;99.90;;;;;;5051311;28;20031;-81
2023/07/20 02:24:11;;;;;;;1.98;1.48;;;12.40;99.90;;;;;;5051758;28;20020;-81
2023/07/20 02:26:37;;;;;;;3.45;2.03;;;12.40;99.90;;;;;;5051164;28;20029;-81
2023/07/20 02:29:04;;;;;;;2.22;1.60;;;12.40;99.90;;;;;;5051142;28;20018;-81
2023/07/20 02:31:30;;;;;;;3.80;2.28;;;12.40;99.90;;;;;;5050924;28;20036;-80
2023/07/20 02:33:56;;;;;;;4.50;2.03;;;12.30;99.90;;;;;;5051556;28;20021;-80
2023/07/20 02:36:22;;;;;;;1.85;1.60;;;12.40;99.90;;;;;;5051137;28;20029;-80
2023/07/20 02:38:47;;;;;;;3.17;1.65;;;12.30;99.90;;;;;;5050716;28;20029;-81
2023/07/20 02:41:14;;;;;;;1.90;1.77;;;12.30;99.90;;;;;;5049069;28;20065;-80
2023/07/20 02:43:39;;;;;;;3.20;2.20;;;12.30;99.90;;;;;;5054670;28;20132;-80
2023/07/20 02:46:05;;;;;;;2.95;1.92;;;12.20;99.90;;;;;;5049603;28;20477;-81
2023/07/20 02:48:31;;;;;;;2.78;1.80;;;12.20;99.90;;;;;;5050779;28;20358;-81
2023/07/20 02:50:56;;;;;;;3.15;1.70;;;12.10;99.90;;;;;;5051063;28;20052;-81
2023/07/20 02:53:22;;;;;;;4.43;1.80;;;12.00;99.90;;;;;;5050873;28;20104;-80
2023/07/20 02:55:48;;;;;;;2.83;1.90;;;12.00;99.90;;;;;;5050130;28;20025;-80
2023/07/20 02:58:13;;;;;;;2.55;1.67;;;12.00;99.90;;;;;;5050558;28;20022;-81
2023/07/20 03:00:39;;;;;;;2.03;1.75;;;12.00;99.90;;;;;;5049518;28;20450;-80
2023/07/20 03:03:09;;;;;;;2.33;1.70;;;12.00;99.90;;;;;;5050473;28;20028;-80
2023/07/20 03:05:40;;;;;;;2.03;1.83;;;11.90;99.90;;;;;;5050607;28;20029;-81
2023/07/20 03:08:06;;;;;;;1.98;1.77;;;11.80;99.90;;;;;;5050195;28;20017;-80
2023/07/20 03:10:32;;;;;;;3.00;1.75;;;11.80;99.90;;;;;;5091377;22;20055;-81
2023/07/20 03:12:58;;;;;;;3.92;2.05;;;11.80;99.90;;;;;;5073346;28;20020;-81
2023/07/20 03:15:23;;;;;;;3.28;1.80;;;11.80;99.90;;;;;;5071939;28;20032;-80
2023/07/20 03:17:49;;;;;;;2.70;1.55;;;11.70;99.90;;;;;;5053398;28;20025;-81
2023/07/20 03:20:15;;;;;;;2.83;2.03;;;11.70;99.90;;;;;;5059574;28;20100;-80
2023/07/20 03:22:41;;;;;;;2.95;1.77;;;11.70;99.90;;;;;;5050563;28;20032;-80
2023/07/20 03:25:07;;;;;;;4.53;2.00;;;11.70;99.90;;;;;;5050567;28;20025;-81
2023/07/20 03:27:33;;;;;;;3.35;1.83;;;11.60;99.90;;;;;;5055382;28;20101;-80
2023/07/20 03:29:59;;;;;;;2.67;1.88;;;11.60;99.90;;;;;;5050531;28;20104;-80
2023/07/20 03:32:24;;;;;;;1.98;1.65;;;11.60;99.90;;;;;;5032312;28;20122;-80
2023/07/20 03:34:50;;;;;;;2.33;1.70;;;11.70;99.90;;;;;;5032233;28;20029;-80
2023/07/20 03:37:16;;;;;;;4.95;1.98;;;11.70;99.90;;;;;;5050568;28;20075;-80
2023/07/20 03:39:41;;;;;;;2.45;1.77;;;11.70;99.90;;;;;;5032160;28;20025;-80
2023/07/20 03:42:07;;;;;;;2.03;1.52;;;11.70;99.90;;;;;;5032436;28;20047;-80
2023/07/20 03:44:33;;;;;;;3.90;2.05;;;11.70;99.90;;;;;;5050604;28;20017;-80
2023/07/20 03:46:59;;;;;;;1.95;1.75;;;11.60;99.90;;;;;;5054512;28;20384;-80
2023/07/20 03:49:24;;;;;;;4.47;1.90;;;11.60;99.90;;;;;;5033276;28;20180;-80
2023/07/20 03:51:50;;;;;;;2.55;1.80;;;11.60;99.90;;;;;;5050333;28;20029;-80
2023/07/20 03:54:15;;;;;;;3.33;2.35;;;11.70;99.90;;;;;;5031724;28;20382;-80
2023/07/20 03:56:41;;;;;;;5.38;1.92;;;11.70;99.90;;;;;;5051906;28;20029;-80
2023/07/20 03:59:07;;;;;;;3.03;2.00;;;11.70;99.90;;;;;;5054374;28;20025;-80
2023/07/20 04:01:36;;;;;;;3.08;2.00;;;11.70;99.90;;;;;;5036010;28;20508;-80
2023/07/20 04:04:06;;;;;;;4.20;2.60;;;11.80;99.90;;;;;;5054638;28;20389;-79
2023/07/20 04:06:32;;;;;;;4.15;2.20;;;11.90;99.90;;;;;;5054515;28;20021;-80
2023/07/20 04:11:37;;;;;;;4.72;2.40;;;12.00;99.90;;;;;;5040842;28;20049;-81
2023/07/20 04:14:03;;;;;;;4.13;2.05;;;12.00;99.90;;;;;;5034962;28;20033;-81
2023/07/20 04:16:28;;;;;;;3.78;2.50;;;12.00;99.90;;;;;;5030035;28;20022;-81
2023/07/20 04:18:57;;;;;;;2.75;1.77;;;11.90;99.90;;;;;;5034698;28;20036;-80
2023/07/20 04:21:27;;;;;;;2.63;1.85;;;12.00;99.90;;;;;;5060111;28;20033;-80
2023/07/20 04:23:53;;;;;;;3.60;1.98;;;11.90;99.90;;;;;;5036382;28;20048;-81
2023/07/20 04:26:19;;;;;;;2.05;1.58;;;11.90;99.90;;;;;;5034169;28;20110;-80
2023/07/20 04:28:44;;;;;;;2.67;1.80;;;11.90;99.90;;;;;;5039778;28;20060;-81
2023/07/20 04:31:15;;;;;;;2.97;2.10;;;11.90;99.90;;;;;;5036047;28;20056;-80
2023/07/20 04:33:40;;;;;;;3.90;2.20;;;12.00;99.90;;;;;;5034852;28;20032;-81
2023/07/20 04:36:07;;;;;;;2.67;1.90;;;11.90;99.90;;;;;;5037033;28;20021;-81
2023/07/20 04:38:33;;;;;;;1.92;1.75;;;12.00;99.90;;;;;;5034807;28;20025;-81
2023/07/20 04:40:58;;;;;;;2.67;2.17;;;12.00;99.90;;;;;;5026134;28;20051;-80
2023/07/20 04:43:24;;;;;;;5.97;2.20;;;12.00;99.90;;;;;;5034544;28;20014;-81
2023/07/20 04:45:50;;;;;;;2.63;1.85;;;12.00;99.90;;;;;;5034422;28;20059;-80
2023/07/20 04:48:17;;;;;;;3.30;1.90;;;12.00;99.90;;;;;;5034776;28;20036;-81
2023/07/20 04:50:45;;;;;;;3.10;2.10;;;11.90;99.90;;;;;;5034009;28;20047;-80
2023/07/20 04:53:14;;;;;;;3.08;1.70;;;11.90;99.90;;;;;;5041272;28;20045;-80
2023/07/20 04:55:40;;;;;;;2.05;1.65;;;12.00;99.90;;;;;;5034019;28;20033;-80
2023/07/20 04:58:07;;;;;;;3.65;2.10;;;12.00;99.90;;;;;;5034324;28;20478;-81
2023/07/20 05:00:33;;;;;;;4.78;1.77;;;12.00;99.90;;;;;;5051737;28;20052;-81
2023/07/20 05:02:59;;;;;;;2.85;1.58;;;12.10;99.90;;;;;;5017863;28;20025;-81
2023/07/20 05:05:25;;;;;;;3.13;1.73;;;12.10;99.90;;;;;;5034080;28;20523;-80
2023/07/20 05:07:51;;;;;;;3.67;2.28;;;12.10;99.90;;;;;;5033845;28;20029;-81
2023/07/20 05:10:17;;;;;;;3.58;1.80;;;12.10;99.90;;;;;;5046277;22;20157;-81
2023/07/20 05:12:43;;;;;;;2.47;1.83;;;12.20;99.90;;;;;;5013134;28;20054;-80
2023/07/20 05:15:09;;;;;;;3.30;1.60;;;12.20;99.90;;;;;;5018393;28;20057;-80
2023/07/20 05:17:35;;;;;;;3.00;2.28;;;12.20;99.90;;;;;;5012956;28;20018;-80
2023/07/20 05:20:01;;;;;;;4.88;2.67;;;12.30;99.90;;;;;;5012439;28;20095;-80
2023/07/20 05:22:26;;;;;;;4.15;2.38;;;12.30;99.90;;;;;;5012922;28;20021;-80
2023/07/20 05:24:52;;;;;;;3.05;1.95;;;12.40;99.90;;;;;;5012288;28;20030;-80
2023/07/20 05:27:17;;;;;;;3.55;2.10;;;12.40;99.90;;;;;;5013159;28;20019;-80
2023/07/20 05:29:44;;;;;;;3.13;2.40;;;12.40;99.90;;;;;;5012781;28;20022;-80
2023/07/20 05:32:10;;;;;;;3.65;2.10;;;12.50;99.90;;;;;;5012389;28;20033;-80
2023/07/20 05:34:35;;;;;;;3.05;1.90;;;12.50;99.90;;;;;;5012501;28;20378;-80
2023/07/20 05:37:01;;;;;;;3.10;2.10;;;12.60;99.90;;;;;;5016809;28;20096;-80
2023/07/20 05:39:26;;;;;;;4.68;2.40;;;12.60;99.90;;;;;;4994909;28;20494;-80
2023/07/20 05:41:52;;;;;;;2.50;2.10;;;12.60;99.90;;;;;;5012403;28;20033;-80
2023/07/20 05:44:18;;;;;;;2.28;2.00;;;12.70;99.90;;;;;;5013040;28;20072;-81
2023/07/20 05:46:44;;;;;;;3.35;2.05;;;12.80;99.90;;;;;;5012323;28;20094;-81
2023/07/20 05:49:10;;;;;;;3.95;2.53;;;12.90;99.90;;;;;;4995265;28;20030;-80
2023/07/20 05:51:36;;;;;;;2.55;2.15;;;13.00;99.90;;;;;;5013408;28;20018;-81
2023/07/20 05:54:01;;;;;;;4.57;2.65;;;13.00;99.90;;;;;;4994754;28;20114;-80
2023/07/20 05:56:27;;;;;;;5.10;2.40;;;13.10;99.90;;;;;;4994790;28;20113;-80
2023/07/20 05:58:53;;;;;;;4.65;2.50;;;13.20;99.90;;;;;;5017775;28;20080;-81
2023/07/20 06:01:19;;;;;;;5.43;3.00;;;13.30;99.90;;;;;;5012313;28;20026;-81
2023/07/20 06:03:44;;;;;;;3.50;2.65;;;13.40;99.90;;;;;;5012231;28;20022;-81
2023/07/20 06:06:11;;;;;;;2.80;2.47;;;13.50;99.90;;;;;;4999370;28;20103;-81
2023/07/20 06:08:37;;;;;;;4.65;2.38;;;13.70;99.90;;;;;;5011364;28;20045;-81
2023/07/20 06:11:03;;;;;;;4.82;2.65;;;13.90;99.90;;;;;;5050205;22;20053;-81
2023/07/20 06:13:29;;;;;;;5.63;2.83;;;14.10;99.90;;;;;;5036966;28;20079;-81
2023/07/20 06:15:58;;;;;;;5.88;3.20;;;14.30;99.90;;;;;;5030602;28;20056;-81
2023/07/20 06:18:23;;;;;;;4.13;2.70;;;14.60;99.90;;;;;;5032296;28;20968;-80
2023/07/20 06:20:50;;;;;;;3.08;2.30;;;14.90;99.90;;;;;;5034389;28;20069;-81
2023/07/20 06:23:17;;;;;;;6.93;2.30;;;15.10;99.90;;;;;;5040010;28;20022;-81
2023/07/20 06:25:43;;;;;;;4.07;2.70;;;15.30;99.90;;;;;;5031841;28;20028;-81
2023/07/20 06:28:08;;;;;;;4.20;2.90;;;15.50;99.80;;;;;;5032141;28;20381;-81
2023/07/20 06:30:34;;;;;;;5.07;2.53;;;15.70;99.80;;;;;;5032231;28;20067;-81
2023/07/20 06:33:00;;;;;;;3.08;2.35;;;16.00;98.00;;;;;;5032168;28;20543;-82
2023/07/20 06:35:26;;;;;;;2.97;2.33;;;16.40;98.40;;;;;;5032108;28;20029;-80
2023/07/20 06:37:52;;;;;;;4.40;2.10;;;16.50;98.00;;;;;;5034318;28;20483;-81
2023/07/20 06:40:18;;;;;;;2.90;2.08;;;16.60;96.70;;;;;;5031009;28;20037;-81
2023/07/20 06:42:44;;;;;;;7.15;2.47;;;16.70;96.90;;;;;;5031490;28;20393;-81
2023/07/20 06:45:10;;;;;;;3.22;2.25;;;16.80;96.20;;;;;;5031130;28;20488;-80
2023/07/20 06:47:39;;;;;;;3.25;2.40;;;16.80;96.70;;;;;;5037036;28;20698;-81
2023/07/20 06:50:06;;;;;;;3.75;1.90;;;16.80;97.00;;;;;;5031329;28;20030;-80
2023/07/20 06:52:32;;;;;;;4.30;1.95;;;16.80;96.60;;;;;;5031526;28;20393;-81
2023/07/20 06:54:58;;;;;;;2.45;2.20;;;16.90;96.50;;;;;;5031288;28;20473;-80
2023/07/20 06:57:23;;;;;;;2.58;1.83;;;16.90;95.50;;;;;;5030771;28;20067;-81
2023/07/20 06:59:49;;;;;;;3.60;1.70;;;17.00;95.80;;;;;;5029577;28;20068;-81
2023/07/20 07:02:15;;;;;;;2.55;1.92;;;17.00;96.10;;;;;;5029519;28;20026;-81
2023/07/20 07:04:41;;;;;;;2.20;2.00;;;17.00;95.90;;;;;;5027470;28;20021;-81
2023/07/20 07:07:08;;;;;;;3.42;1.92;;;17.00;95.70;;;;;;5030005;28;20095;-81
2023/07/20 07:09:34;;;;;;;3.72;2.10;;;17.00;95.50;;;;;;5056916;23;20083;-83
2023/07/20 07:12:00;;;;;;;4.22;2.38;;;17.20;94.20;;;;;;5055285;28;20040;-83
2023/07/20 07:14:25;;;;;;;2.90;1.95;;;17.20;94.80;;;;;;5054725;28;20016;-83
2023/07/20 07:16:51;;;;;;;3.92;2.03;;;17.20;94.30;;;;;;5050222;28;20025;-83
2023/07/20 07:19:17;;;;;;;4.47;2.45;;;17.30;94.30;;;;;;5050287;28;20067;-83
2023/07/20 07:21:42;;;;;;;3.38;2.20;;;17.40;94.20;;;;;;5050339;28;20021;-82
2023/07/20 07:24:09;;;;;;;2.33;2.10;;;17.40;94.20;;;;;;5049870;28;20025;-81
2023/07/20 07:26:36;;;;;;;2.80;2.00;;;17.40;94.70;;;;;;5047748;28;20054;-84
2023/07/20 07:29:01;;;;;;;3.85;1.83;;;17.50;94.20;;;;;;5048206;28;20029;-84
2023/07/20 07:31:30;;;;;;;3.88;2.05;;;17.50;94.20;;;;;;5052040;28;20019;-84
2023/07/20 07:33:55;;;;;;;3.40;1.90;;;17.50;93.20;;;;;;5054457;28;20492;-83
2023/07/20 07:36:21;;;;;;;3.25;2.30;;;17.50;93.40;;;;;;5054423;28;20055;-84
2023/07/20 07:38:47;;;;;;;10.88;1.92;;;17.70;93.30;;;;;;5050428;28;20408;-83
2023/07/20 07:41:13;;;;;;;3.78;2.10;;;17.70;93.40;;;;;;5054059;28;20025;-83
2023/07/20 07:43:39;;;;;;;3.45;2.20;;;17.80;93.00;;;;;;5053841;28;20020;-83
2023/07/20 07:46:05;;;;;;;4.00;2.45;;;17.80;93.20;;;;;;5054503;28;20025;-83
2023/07/20 07:48:30;;;;;;;2.72;1.98;;;17.80;92.60;;;;;;5053677;28;20062;-83
2023/07/20 07:50:56;;;;;;;3.45;2.00;;;17.80;93.30;;;;;;5054407;28;20384;-82
2023/07/20 07:53:22;;;;;;;2.78;2.20;;;17.90;92.50;;;;;;5054927;28;20025;-82
2023/07/20 07:55:48;;;;;;;2.95;2.00;;;17.90;93.40;;;;;;5053405;28;20373;-83
2023/07/20 07:58:14;;;;;;;3.25;1.90;;;17.90;93.20;;;;;;5048533;28;20370;-83
2023/07/20 08:00:39;;;;;;;2.85;2.10;;;18.00;92.60;;;;;;5038907;28;20036;-83
2023/07/20 08:03:08;;;;;;;3.08;1.77;;;18.00;92.80;;;;;;5053743;28;20028;-84
2023/07/20 08:05:34;;;;;;;2.85;1.92;;;18.10;92.10;;;;;;5054226;28;20013;-84
2023/07/20 08:08:01;;;;;;;2.38;1.70;;;18.20;92.40;;;;;;5054211;28;20442;-83
2023/07/20 08:10:26;;;;;;;3.60;1.83;;;18.20;92.10;;;;;;5051064;22;20038;-78
2023/07/20 08:12:52;;;;;;;4.13;1.75;;;18.30;92.00;;;;;;5016006;28;20695;-81
2023/07/20 08:15:18;;;;;;;2.03;1.83;;;18.40;92.00;;;;;;5014230;28;20026;-83
2023/07/20 08:17:44;;;;;;;2.65;1.70;;;18.50;91.70;;;;;;5013614;28;20470;-79
2023/07/20 08:20:13;;;;;;;2.53;1.73;;;18.50;91.20;;;;;;5013934;28;20494;-80
2023/07/20 08:22:42;;;;;;;2.75;2.08;;;18.60;90.90;;;;;;5028711;28;20373;-78
2023/07/20 08:25:08;;;;;;;2.90;1.80;;;18.80;91.40;;;;;;5017850;28;20022;-81
2023/07/20 08:27:34;;;;;;;3.70;1.85;;;18.90;90.10;;;;;;5015044;28;20029;-80
2023/07/20 08:30:00;;;;;;;2.28;1.60;;;19.00;89.60;;;;;;5013938;28;20409;-78
2023/07/20 08:32:26;;;;;;;4.55;1.77;;;19.10;89.90;;;;;;5014172;28;20081;-78
2023/07/20 08:34:52;;;;;;;2.95;1.40;;;19.40;88.50;;;;;;5013436;28;20014;-77
2023/07/20 08:37:17;;;;;;;2.60;1.50;;;19.60;87.70;;;;;;5013038;28;20779;-79
2023/07/20 08:39:43;;;;;;;2.58;1.30;;;19.90;82.90;;;;;;5013538;28;20088;-78
2023/07/20 08:42:10;;;;;;;1.40;1.30;;;20.20;83.10;;;;;;5012989;28;20030;-80
2023/07/20 08:44:38;;;;;;;1.85;1.27;;;20.70;83.00;;;;;;5013856;28;20049;-78
2023/07/20 08:47:05;;;;;;;3.50;1.50;;;21.50;79.40;;;;;;5017530;28;20034;-78
2023/07/20 08:49:35;;;;;;;2.67;1.33;;;22.50;72.40;;;;;;5013439;28;20385;-78
2023/07/20 08:52:01;;;;;;;2.33;1.17;;;23.70;69.90;;;;;;5013613;28;20447;-81
2023/07/20 08:54:32;;;;;;;1.52;1.30;;;24.80;66.10;;;;;;5008526;28;20489;-81
2023/07/20 08:57:01;;;;;;;3.20;0.98;;;25.90;59.60;;;;;;5018841;28;20022;-78
2023/07/20 08:59:28;;;;;;;3.80;1.15;;;26.30;59.40;;;;;;5013286;28;20025;-82
2023/07/20 09:01:59;;;;;;;3.13;1.17;;;26.80;57.30;;;;;;5013108;28;20537;-78
2023/07/20 09:04:24;;;;;;;1.30;1.20;;;27.30;55.50;;;;;;5013101;28;20106;-78
2023/07/20 09:06:51;;;;;;;2.60;1.38;;;27.60;56.00;;;;;;5013458;28;20106;-80
2023/07/20 09:11:54;;;;;;;2.65;0.93;;;29.30;50.10;;;;;;5036385;28;20045;-86
2023/07/20 09:14:23;;;;;;;1.73;1.10;;;29.80;49.00;;;;;;5032313;28;20044;-87
2023/07/20 09:16:50;;;;;;;2.67;1.10;;;29.70;46.90;;;;;;5033108;28;20021;-88
2023/07/20 09:19:18;;;;;;;4.55;1.30;;;28.90;47.40;;;;;;5032737;28;20029;-86
2023/07/20 09:21:51;;;;;;;1.73;1.42;;;27.90;47.90;;;;;;5012969;28;20061;-87
2023/07/20 09:24:18;;;;;;;1.25;1.02;;;26.70;48.20;;;;;;5012642;28;20010;-84
2023/07/20 09:26:45;;;;;;;1.48;1.00;;;26.40;51.50;;;;;;5012257;28;20022;-84
2023/07/20 09:29:11;;;;;;;3.67;1.20;;;25.80;56.10;;;;;;5012541;28;20072;-83
2023/07/20 09:31:38;;;;;;;2.25;1.13;;;26.10;56.60;;;;;;5013011;28;20018;-86
2023/07/20 09:34:04;;;;;;;1.88;1.02;;;26.50;54.60;;;;;;5012524;28;20022;-84
2023/07/20 09:36:36;;;;;;;1.98;0.88;;;27.00;51.70;;;;;;5012856;28;20018;-84
2023/07/20 09:39:04;;;;;;;0.93;0.85;;;27.00;52.70;;;;;;5023522;28;20032;-86
2023/07/20 09:41:30;;;;;;;1.42;0.90;;;26.70;52.60;;;;;;5013876;28;20030;-85
2023/07/20 09:43:55;;;;;;;1.63;1.10;;;26.10;51.90;;;;;;5012623;28;20468;-85
2023/07/20 09:46:22;;;;;;;4.68;0.80;;;25.80;52.70;;;;;;5023622;28;20038;-85
2023/07/20 09:48:53;;;;;;;3.03;1.10;;;25.50;51.00;;;;;;5012220;28;20022;-84
2023/07/20 09:51:22;;;;;;;3.03;1.00;;;25.00;54.90;;;;;;5012082;28;20018;-85
2023/07/20 09:53:49;;;;;;;3.05;1.10;;;24.90;53.90;;;;;;5011254;28;20045;-87
2023/07/20 09:56:17;;;;;;;2.42;1.00;;;24.60;56.90;;;;;;5012208;28;20116;-85
2023/07/20 09:58:45;;;;;;;1.45;1.13;;;24.30;55.90;;;;;;5002542;28;20018;-88
2023/07/20 10:01:14;;;;;;;1.80;1.10;;;24.10;55.90;;;;;;4995119;28;20036;-87
2023/07/20 10:03:45;;;;;;;3.33;1.33;;;23.90;57.10;;;;;;5027223;28;20021;-85
2023/07/20 10:06:14;;;;;;;2.03;1.20;;;23.90;59.20;;;;;;5012202;28;20018;-85
2023/07/20 10:08:41;;;;;;;1.17;1.08;;;24.20;57.00;;;;;;4988275;28;20014;-87
2023/07/20 10:11:12;;;;;;;3.05;1.25;;;25.40;54.80;;;;;;5045736;22;20092;-79
2023/07/20 10:13:39;;;;;;;1.40;1.10;;;25.50;52.50;;;;;;5012899;28;20018;-80
2023/07/20 10:16:39;;;;;;;1.55;1.10;;;25.60;50.30;;;;;;5012922;28;20021;-81
2023/07/20 10:19:26;;;;;;;2.25;1.05;;;25.30;50.70;;;;;;5017702;28;20065;-79
2023/07/20 10:22:07;;;;;;;0.95;0.85;;;25.00;50.80;;;;;;5008543;28;20038;-79
2023/07/20 10:24:34;;;;;;;1.60;1.10;;;26.20;50.50;;;;;;5017064;28;20072;-79
2023/07/20 10:27:00;;;;;;;2.80;1.00;;;28.00;50.40;;;;;;5011468;28;20026;-80
2023/07/20 10:29:27;;;;;;;2.70;1.10;;;29.50;42.30;;;;;;5010798;28;20554;-79
2023/07/20 10:31:54;;;;;;;1.27;0.90;;;30.90;43.00;;;;;;5011579;28;20117;-81
2023/07/20 10:34:21;;;;;;;1.27;0.90;;;30.70;38.00;;;;;;5011717;28;20500;-79
2023/07/20 10:36:51;;;;;;;2.15;0.73;;;29.80;38.70;;;;;;5012485;28;20521;-81
2023/07/20 10:39:27;;;;;;;0.90;0.85;;;28.80;41.20;;;;;;5014564;28;20025;-80
2023/07/20 10:42:07;;;;;;;1.67;1.05;;;28.20;42.70;;;;;;5010122;28;20054;-79
2023/07/20 10:44:34;;;;;;;1.33;0.95;;;28.70;41.70;;;;;;5005706;28;20026;-79
2023/07/20 10:47:01;;;;;;;0.60;0.60;;;29.60;40.10;;;;;;5013098;28;20017;-82
2023/07/20 10:49:27;;;;;;;1.35;0.70;;;31.00;39.80;;;;;;5011422;28;20022;-79
2023/07/20 10:51:59;;;;;;;0.65;0.65;;;32.40;36.90;;;;;;5011004;28;20069;-79
2023/07/20 10:54:27;;;;;;;0.60;0.60;;;33.50;34.20;;;;;;5010934;28;20501;-82
2023/07/20 10:56:55;;;;;;;0.60;0.60;;;33.90;33.50;;;;;;5006668;28;20475;-80
2023/07/20 10:59:24;;;;;;;1.55;1.00;;;33.90;31.40;;;;;;5010328;28;20105;-82
2023/07/20 11:01:59;;;;;;;2.38;1.10;;;33.70;35.20;;;;;;5010586;28;20045;-79
2023/07/20 11:04:52;;;;;;;1.10;0.70;;;34.30;36.00;;;;;;5009667;28;20018;-80
2023/07/20 11:07:37;;;;;;;1.33;0.88;;;34.50;35.70;;;;;;5008593;28;20125;-79
2023/07/20 11:10:16;;;;;;;1.42;1.13;;;33.30;37.40;;;;;;5038994;23;20053;-89
2023/07/20 11:13:01;;;;;;;1.88;1.00;;;32.10;38.00;;;;;;5039143;28;20034;-89
2023/07/20 11:15:44;;;;;;;3.22;1.35;;;31.00;40.10;;;;;;5037531;28;20028;-90
2023/07/20 11:18:13;;;;;;;2.17;1.33;;;29.60;41.90;;;;;;5031653;28;20029;-86
2023/07/20 11:20:39;;;;;;;1.50;1.20;;;28.30;43.80;;;;;;5010135;28;20062;-86
2023/07/20 11:23:05;;;;;;;2.63;1.70;;;28.40;45.90;;;;;;5015645;28;20058;-83
2023/07/20 11:25:40;;;;;;;4.15;1.80;;;28.90;43.10;;;;;;5011116;28;20164;-85
2023/07/20 11:28:10;;;;;;;2.42;1.38;;;30.40;41.40;;;;;;5011083;28;20028;-82
2023/07/20 11:30:37;;;;;;;1.70;1.27;;;31.40;39.60;;;;;;5011679;28;20033;-84
2023/07/20 11:33:03;;;;;;;2.35;1.13;;;32.10;38.30;;;;;;5011699;28;20493;-86
2023/07/20 11:35:29;;;;;;;3.95;1.15;;;31.70;36.60;;;;;;5011433;28;20018;-87
2023/07/20 11:37:55;;;;;;;1.52;1.10;;;31.80;36.20;;;;;;5014206;28;20030;-88
2023/07/20 11:40:22;;;;;;;4.32;1.30;;;31.70;36.40;;;;;;5010671;28;20355;-88
2023/07/20 11:42:50;;;;;;;1.75;1.02;;;31.90;37.30;;;;;;5011544;28;20073;-89
2023/07/20 11:45:19;;;;;;;1.67;1.25;;;32.20;36.40;;;;;;5016499;28;20509;-88
2023/07/20 11:47:46;;;;;;;3.63;1.30;;;32.20;37.50;;;;;;5004664;28;20014;-86
2023/07/20 11:50:13;;;;;;;1.67;1.10;;;32.50;35.80;;;;;;5010571;28;20028;-83
2023/07/20 11:52:40;;;;;;;3.58;1.00;;;32.60;34.90;;;;;;5016448;28;20028;-86
2023/07/20 11:55:07;;;;;;;1.40;1.20;;;31.80;35.00;;;;;;5010565;28;20087;-89
2023/07/20 11:57:33;;;;;;;1.88;1.20;;;30.90;35.80;;;;;;5010742;28;20026;-85
2023/07/20 12:00:05;;;;;;;3.45;1.00;;;30.50;36.80;;;;;;5017642;28;20030;-89
2023/07/20 12:02:32;;;;;;;1.70;1.10;;;31.40;37.30;;;;;;5008228;28;20018;-86
2023/07/20 12:05:02;;;;;;;3.05;1.10;;;32.00;35.20;;;;;;5017783;28;20418;-86
2023/07/20 12:07:29;;;;;;;1.60;1.13;;;31.70;34.90;;;;;;5002019;28;20030;-84
2023/07/20 12:10:13;;;;;;;1.75;1.30;;;30.40;37.20;;;;;;5036624;23;20037;-80
2023/07/20 12:12:40;;;;;;;3.75;1.27;;;28.90;39.40;;;;;;5047194;28;20107;-79
2023/07/20 12:15:32;;;;;;;3.05;1.00;;;28.80;40.80;;;;;;5048478;28;20017;-78
2023/07/20 12:18:00;;;;;;;1.45;1.08;;;28.40;39.80;;;;;;5029527;28;20106;-79
2023/07/20 12:20:35;;;;;;;3.83;1.23;;;29.20;41.70;;;;;;5057060;28;20058;-79
2023/07/20 12:23:07;;;;;;;6.20;1.08;;;30.60;39.60;;;;;;5055258;28;20100;-79
2023/07/20 12:25:53;;;;;;;3.65;1.27;;;31.50;38.80;;;;;;5053299;28;20104;-78
2023/07/20 12:28:20;;;;;;;1.40;1.27;;;32.10;34.30;;;;;;5052781;28;20477;-78
2023/07/20 12:30:46;;;;;;;4.13;1.10;;;33.00;35.10;;;;;;5068013;28;20120;-81
2023/07/20 12:33:15;;;;;;;0.85;0.77;;;33.00;34.70;;;;;;5057044;28;20017;-79
2023/07/20 12:35:43;;;;;;;1.48;0.88;;;33.70;34.30;;;;;;5052613;28;20025;-80
2023/07/20 12:38:08;;;;;;;1.70;1.10;;;34.20;32.70;;;;;;5053275;28;20065;-79
2023/07/20 12:40:35;;;;;;;2.15;1.17;;;33.70;31.40;;;;;;5044972;28;20473;-79
2023/07/20 12:43:00;;;;;;;6.95;1.10;;;33.00;34.20;;;;;;5053124;28;20017;-79
2023/07/20 12:45:26;;;;;;;2.67;1.40;;;32.10;35.40;;;;;;5051799;28;20975;-79
2023/07/20 12:47:52;;;;;;;1.17;0.93;;;31.60;35.70;;;;;;5053016;28;20025;-80
2023/07/20 12:50:18;;;;;;;1.20;1.10;;;32.30;36.40;;;;;;5050981;28;20017;-80
2023/07/20 12:52:43;;;;;;;2.38;1.20;;;32.80;34.80;;;;;;5052835;28;20080;-80
2023/07/20 12:55:10;;;;;;;2.53;1.25;;;33.30;34.40;;;;;;5053735;28;20629;-78
2023/07/20 12:57:36;;;;;;;1.63;1.25;;;33.70;33.00;;;;;;5053012;28;20017;-78